createdAt,value
2022-09-29T00:00:55.778Z,99761.47
2022-09-29T00:04:57.205Z,99756.38
2022-09-29T00:08:58.714Z,99761.56
2022-09-29T00:13:00.132Z,99761.47
2022-09-29T00:17:01.584Z,99767.78
2022-09-29T00:21:09.580Z,99761.75
2022-09-29T00:25:11.048Z,99762.66
2022-09-29T00:29:12.552Z,99757.47
2022-09-29T00:33:13.999Z,99760.84
2022-09-29T00:37:15.428Z,99768.66
2022-09-29T00:41:26.337Z,99768.97
2022-09-29T00:45:27.865Z,99763.66
2022-09-29T00:49:51.710Z,99767.38
2022-09-29T00:53:53.695Z,99760.56
2022-09-29T00:58:12.609Z,99769.53
2022-09-29T01:02:15.463Z,99765.28
2022-09-29T01:06:29.544Z,99767.81
2022-09-29T01:10:31.011Z,99766.03
2022-09-29T01:14:34.877Z,99765.66
2022-09-29T01:18:36.483Z,99764.69
2022-09-29T01:22:58.417Z,99759.47
2022-09-29T01:27:11.908Z,99764.00
2022-09-29T01:31:31.659Z,99764.88
2022-09-29T01:35:38.664Z,99771.22
2022-09-29T01:40:06.480Z,99772.22
2022-09-29T01:44:43.463Z,99769.53
2022-09-29T01:48:50.211Z,99772.34
2022-09-29T01:52:59.161Z,99771.31
2022-09-29T01:57:25.544Z,99779.41
2022-09-29T02:01:34.333Z,99773.25
2022-09-29T02:05:44.932Z,99766.59
2022-09-29T02:09:52.870Z,99766.28
2022-09-29T02:14:04.029Z,99765.34
2022-09-29T02:18:32.726Z,99766.34
2022-09-29T02:22:35.135Z,99764.47
2022-09-29T02:26:36.547Z,99767.13
2022-09-29T02:30:37.982Z,99765.59
2022-09-29T02:34:45.948Z,99765.75
2022-09-29T02:39:01.378Z,99773.63
2022-09-29T02:43:40.395Z,99775.53
2022-09-29T02:48:07.575Z,99789.50
2022-09-29T02:52:32.824Z,99790.16
2022-09-29T02:56:45.676Z,99785.69
2022-09-29T03:00:47.624Z,99792.69
2022-09-29T03:04:49.161Z,99793.69
2022-09-29T03:08:50.577Z,99796.91
2022-09-29T03:12:51.985Z,99796.91
2022-09-29T03:16:53.559Z,99798.03
2022-09-29T03:20:55.352Z,99806.31
2022-09-29T03:24:57.076Z,99795.72
2022-09-29T03:28:58.530Z,99794.97
2022-09-29T03:33:00.015Z,99803.00
2022-09-29T03:37:02.194Z,99803.09
2022-09-29T03:41:04.908Z,99802.22
2022-09-29T03:45:06.876Z,99800.69
2022-09-29T03:49:11.687Z,99804.84
2022-09-29T03:53:14.196Z,99804.09
2022-09-29T03:57:15.657Z,99807.63
2022-09-29T04:01:17.186Z,99806.75
2022-09-29T04:05:18.596Z,99803.38
2022-09-29T04:09:20.457Z,99802.28
2022-09-29T04:13:22.021Z,99804.31
2022-09-29T04:17:23.602Z,99809.69
2022-09-29T04:21:25.042Z,99808.03
2022-09-29T04:25:28.021Z,99810.72
2022-09-29T04:29:29.467Z,99820.38
2022-09-29T04:33:31.475Z,99814.25
2022-09-29T04:37:32.918Z,99827.28
2022-09-29T04:41:35.992Z,99825.41
2022-09-29T04:45:37.514Z,99821.84
2022-09-29T04:49:39.752Z,99823.75
2022-09-29T04:53:41.243Z,99822.88
2022-09-29T04:57:44.005Z,99829.84
2022-09-29T05:01:45.519Z,99833.28
2022-09-29T05:05:46.949Z,99844.56
2022-09-29T05:09:48.571Z,99835.69
2022-09-29T05:13:52.753Z,99844.78
2022-09-29T05:17:54.272Z,99842.81
2022-09-29T05:21:55.687Z,99842.78
2022-09-29T05:26:04.374Z,99845.41
2022-09-29T05:30:06.505Z,99850.56
2022-09-29T05:34:08.194Z,99854.81
2022-09-29T05:38:09.636Z,99845.06
2022-09-29T05:42:12.055Z,99856.09
2022-09-29T05:46:14.117Z,99857.63
2022-09-29T05:50:15.806Z,99851.16
2022-09-29T05:54:17.268Z,99851.06
2022-09-29T05:58:19.393Z,99848.97
2022-09-29T06:02:20.838Z,99858.72
2022-09-29T06:06:26.035Z,99851.63
2022-09-29T06:10:27.507Z,99858.75
2022-09-29T06:14:28.978Z,99858.75
2022-09-29T06:18:31.337Z,99862.59
2022-09-29T06:22:33.574Z,99867.03
2022-09-29T06:26:35.549Z,99867.44
2022-09-29T06:30:36.943Z,99871.13
2022-09-29T06:34:58.825Z,99867.47
2022-09-29T06:39:01.129Z,99876.75
2022-09-29T06:43:02.938Z,99878.66
2022-09-29T06:47:04.380Z,99877.97
2022-09-29T06:51:10.594Z,99876.50
2022-09-29T06:55:12.470Z,99877.50
2022-09-29T06:59:14.179Z,99892.34
2022-09-29T07:03:15.639Z,99893.09
2022-09-29T07:07:17.151Z,99890.94
2022-09-29T07:11:18.603Z,99897.78
2022-09-29T07:15:20.015Z,99894.91
2022-09-29T07:19:22.225Z,99900.84
2022-09-29T07:23:23.856Z,99898.69
2022-09-29T07:27:25.248Z,99896.59
2022-09-29T07:31:27.516Z,99897.56
2022-09-29T07:35:29.059Z,99894.16
2022-09-29T07:39:30.503Z,99904.69
2022-09-29T07:43:32.383Z,99909.84
2022-09-29T07:47:33.852Z,99916.28
2022-09-29T07:51:35.326Z,99924.38
2022-09-29T07:55:36.826Z,99915.09
2022-09-29T07:59:40.891Z,99928.75
2022-09-29T08:03:55.113Z,99923.16
2022-09-29T08:07:58.487Z,99933.09
2022-09-29T08:12:07.726Z,99929.47
2022-09-29T08:16:12.648Z,99933.19
2022-09-29T08:20:14.233Z,99942.53
2022-09-29T08:24:17.747Z,99947.22
2022-09-29T08:28:29.265Z,99937.56
2022-09-29T08:32:33.678Z,99947.94
2022-09-29T08:36:36.576Z,99950.03
2022-09-29T08:40:38.356Z,99951.69
2022-09-29T08:44:51.711Z,99954.53
2022-09-29T08:48:58.381Z,99953.66
2022-09-29T08:53:24.637Z,99961.91
2022-09-29T08:57:30.674Z,99967.63
2022-09-29T09:01:59.317Z,99968.94
2022-09-29T09:06:13.532Z,99978.44
2022-09-29T09:10:28.097Z,99989.47
2022-09-29T09:14:44.710Z,99987.44
2022-09-29T09:19:25.742Z,99977.69
2022-09-29T09:23:33.423Z,99987.72
2022-09-29T09:27:39.520Z,99988.66
2022-09-29T09:31:51.215Z,99992.00
2022-09-29T09:36:00.244Z,99989.69
2022-09-29T09:40:14.826Z,99993.81
2022-09-29T09:44:34.208Z,99987.41
2022-09-29T09:48:42.637Z,100000.78
2022-09-29T09:52:48.619Z,99991.81
2022-09-29T09:57:22.394Z,100003.09
2022-09-29T10:01:24.845Z,99995.25
2022-09-29T10:05:34.159Z,100004.63
2022-09-29T10:09:35.663Z,100004.22
2022-09-29T10:13:37.213Z,100007.69
2022-09-29T10:17:44.147Z,100003.06
2022-09-29T10:21:45.633Z,99999.72
2022-09-29T10:25:57.785Z,100006.91
2022-09-29T10:30:00.100Z,100006.38
2022-09-29T10:34:10.582Z,100013.13
2022-09-29T10:38:18.180Z,100023.97
2022-09-29T10:42:31.900Z,100026.09
2022-09-29T10:47:06.736Z,100032.59
2022-09-29T10:51:20.153Z,100034.16
2022-09-29T10:55:27.379Z,100029.06
2022-09-29T10:59:29.036Z,100022.41
2022-09-29T11:03:30.485Z,100028.16
2022-09-29T11:07:34.154Z,100029.41
2022-09-29T11:11:38.702Z,100035.91
2022-09-29T11:15:41.380Z,100037.13
2022-09-29T11:19:43.093Z,100039.88
2022-09-29T11:23:58.105Z,100040.44
2022-09-29T11:28:17.799Z,100051.63
2022-09-29T11:32:39.888Z,100061.38
2022-09-29T11:37:16.959Z,100068.00
2022-09-29T11:41:57.359Z,100076.13
2022-09-29T11:46:31.233Z,100081.63
2022-09-29T11:50:49.254Z,100080.88
2022-09-29T11:54:57.485Z,100079.75
2022-09-29T11:59:23.589Z,100077.53
2022-09-29T12:03:41.445Z,100084.34
2022-09-29T12:08:17.492Z,100082.16
2022-09-29T12:12:33.769Z,100094.84
2022-09-29T12:16:39.689Z,100091.38
2022-09-29T12:20:45.254Z,100096.13
2022-09-29T12:24:59.445Z,100093.00
2022-09-29T12:29:35.078Z,100100.56
2022-09-29T12:34:04.290Z,100103.50
2022-09-29T12:38:30.778Z,100099.59
2022-09-29T12:42:40.412Z,100110.22
2022-09-29T12:46:46.046Z,100121.84
2022-09-29T12:51:00.363Z,100113.91
2022-09-29T12:55:08.329Z,100127.41
2022-09-29T12:59:31.073Z,100120.41
2022-09-29T13:03:57.192Z,100135.34
2022-09-29T13:08:39.979Z,100134.91
2022-09-29T13:13:18.804Z,100144.78
2022-09-29T13:17:49.081Z,100150.69
2022-09-29T13:22:11.408Z,100147.22
2022-09-29T13:26:16.267Z,100145.66
2022-09-29T13:30:21.596Z,100148.78
2022-09-29T13:34:31.808Z,100149.56
2022-09-29T13:38:36.893Z,100154.16
2022-09-29T13:42:41.462Z,100146.38
2022-09-29T13:46:43.143Z,100150.16
2022-09-29T13:50:49.953Z,100152.97
2022-09-29T13:54:51.429Z,100145.97
2022-09-29T13:58:52.812Z,100146.81
2022-09-29T14:03:03.297Z,100152.44
2022-09-29T14:07:06.439Z,100149.44
2022-09-29T14:11:27.710Z,100147.25
2022-09-29T14:15:35.305Z,100146.91
2022-09-29T14:20:30.919Z,100156.13
2022-09-29T14:24:35.254Z,100154.97
2022-09-29T14:28:41.873Z,100155.81
2022-09-29T14:32:54.865Z,100166.13
2022-09-29T14:36:58.660Z,100168.78
2022-09-29T14:41:14.843Z,100176.00
2022-09-29T14:45:35.071Z,100170.47
2022-09-29T14:50:14.855Z,100168.34
2022-09-29T14:54:36.457Z,100186.16
2022-09-29T14:59:09.041Z,100186.78
2022-09-29T15:03:27.626Z,100196.22
2022-09-29T15:07:29.653Z,100200.97
2022-09-29T15:11:45.400Z,100210.75
2022-09-29T15:15:48.826Z,100207.53
2022-09-29T15:20:27.435Z,100212.38
2022-09-29T15:24:45.048Z,100216.53
2022-09-29T15:28:46.959Z,100221.44
2022-09-29T15:32:50.528Z,100218.72
2022-09-29T15:36:54.875Z,100231.00
2022-09-29T15:41:02.725Z,100231.69
2022-09-29T15:45:15.831Z,100237.84
2022-09-29T15:49:22.330Z,100254.22
2022-09-29T15:53:26.167Z,100254.91
2022-09-29T15:57:43.973Z,100255.38
2022-09-29T16:01:45.864Z,100263.94
2022-09-29T16:06:24.572Z,100272.53
2022-09-29T16:10:34.983Z,100275.94
2022-09-29T16:14:36.551Z,100275.22
2022-09-29T16:18:43.351Z,100285.13
2022-09-29T16:22:48.896Z,100290.66
2022-09-29T16:26:52.692Z,100296.63
2022-09-29T16:31:16.869Z,100299.84
2022-09-29T16:35:39.058Z,100315.03
2022-09-29T16:39:43.292Z,100305.88
2022-09-29T16:43:46.569Z,100309.38
2022-09-29T16:47:48.051Z,100312.66
2022-09-29T16:51:50.502Z,100321.38
2022-09-29T16:56:29.322Z,100323.31
2022-09-29T17:00:30.817Z,100327.25
2022-09-29T17:04:33.504Z,100332.66
2022-09-29T17:08:34.955Z,100339.09
2022-09-29T17:12:36.440Z,100342.78
2022-09-29T17:16:38.380Z,100348.94
2022-09-29T17:20:40.509Z,100355.69
2022-09-29T17:24:41.985Z,100349.38
2022-09-29T17:28:43.416Z,100364.88
2022-09-29T17:32:46.643Z,100365.00
2022-09-29T17:36:48.146Z,100364.81
2022-09-29T17:40:57.039Z,100378.84
2022-09-29T17:44:59.559Z,100380.72
2022-09-29T17:49:01.164Z,100383.41
2022-09-29T17:53:06.551Z,100382.56
2022-09-29T17:57:19.302Z,100388.09
2022-09-29T18:01:26.128Z,100391.75
2022-09-29T18:05:29.243Z,100396.19
2022-09-29T18:09:30.784Z,100399.88
2022-09-29T18:13:32.363Z,100402.63
2022-09-29T18:17:33.829Z,100399.28
2022-09-29T18:21:35.486Z,100398.19
2022-09-29T18:25:37.191Z,100406.09
2022-09-29T18:29:38.586Z,100410.44
2022-09-29T18:33:40.098Z,100413.03
2022-09-29T18:37:41.550Z,100417.59
2022-09-29T18:41:43.017Z,100419.63
2022-09-29T18:45:45.054Z,100428.75
2022-09-29T18:49:46.614Z,100432.19
2022-09-29T18:53:48.072Z,100436.69
2022-09-29T18:57:50.348Z,100435.16
2022-09-29T19:01:51.856Z,100443.34
2022-09-29T19:05:54.647Z,100443.22
2022-09-29T19:09:56.077Z,100446.59
2022-09-29T19:13:58.330Z,100450.91
2022-09-29T19:17:59.849Z,100453.09
2022-09-29T19:22:01.327Z,100464.53
2022-09-29T19:26:02.894Z,100465.41
2022-09-29T19:30:08.462Z,100472.50
2022-09-29T19:34:09.896Z,100482.94
2022-09-29T19:38:11.397Z,100485.81
2022-09-29T19:42:12.840Z,100487.94
2022-09-29T19:46:15.010Z,100487.28
2022-09-29T19:50:35.150Z,100489.84
2022-09-29T19:54:38.351Z,100495.53
2022-09-29T19:58:40.935Z,100502.56
2022-09-29T20:02:44.177Z,100494.88
2022-09-29T20:06:45.767Z,100494.72
2022-09-29T20:10:47.172Z,100502.72
2022-09-29T20:14:50.574Z,100500.63
2022-09-29T20:18:51.971Z,100494.84
2022-09-29T20:22:54.084Z,100500.06
2022-09-29T20:26:57.337Z,100501.72
2022-09-29T20:30:59.916Z,100506.75
2022-09-29T20:35:01.497Z,100516.09
2022-09-29T20:39:03.977Z,100518.41
2022-09-29T20:43:05.392Z,100508.16
2022-09-29T20:47:07.668Z,100515.06
2022-09-29T20:51:15.072Z,100529.22
2022-09-29T20:55:16.524Z,100528.47
2022-09-29T20:59:20.250Z,100532.84
2022-09-29T21:03:23.629Z,100536.72
2022-09-29T21:07:38.070Z,100537.19
2022-09-29T21:11:40.105Z,100541.31
2022-09-29T21:15:42.166Z,100547.84
2022-09-29T21:19:43.623Z,100549.03
2022-09-29T21:23:46.179Z,100547.56
2022-09-29T21:27:49.496Z,100554.09
2022-09-29T21:31:51.037Z,100550.97
2022-09-29T21:36:00.760Z,100562.13
2022-09-29T21:40:03.058Z,100565.91
2022-09-29T21:44:11.233Z,100570.16
2022-09-29T21:48:12.795Z,100567.63
2022-09-29T21:52:14.308Z,100572.81
2022-09-29T21:56:17.993Z,100575.78
2022-09-29T22:00:19.787Z,100576.94
2022-09-29T22:04:21.393Z,100584.28
2022-09-29T22:08:23.351Z,100582.16
2022-09-29T22:12:26.191Z,100583.97
2022-09-29T22:16:30.867Z,100589.53
2022-09-29T22:20:32.561Z,100586.88
2022-09-29T22:24:34.615Z,100590.66
2022-09-29T22:28:36.169Z,100582.06
2022-09-29T22:32:38.375Z,100591.31
2022-09-29T22:36:39.997Z,100598.59
2022-09-29T22:40:41.438Z,100593.84
2022-09-29T22:44:42.844Z,100586.75
2022-09-29T22:48:44.329Z,100594.16
2022-09-29T22:52:46.346Z,100598.03
2022-09-29T22:56:47.970Z,100603.59
2022-09-29T23:01:02.470Z,100605.88
2022-09-29T23:05:04.142Z,100615.84
2022-09-29T23:09:05.891Z,100613.34
2022-09-29T23:13:07.712Z,100614.31
2022-09-29T23:17:09.102Z,100614.91
2022-09-29T23:21:12.348Z,100615.72
2022-09-29T23:25:14.014Z,100617.47
2022-09-29T23:29:15.464Z,100618.41
2022-09-29T23:33:16.981Z,100623.66
2022-09-29T23:37:18.408Z,100632.44
2022-09-29T23:41:20.514Z,100629.78
2022-09-29T23:45:22.233Z,100632.38
2022-09-29T23:49:26.855Z,100635.44
2022-09-29T23:53:28.381Z,100633.03
2022-09-29T23:57:29.795Z,100628.66
